createdAt,value
2023-02-23T00:01:23.988Z,101127.22
2023-02-23T00:04:12.814Z,101133.91
2023-02-23T00:06:47.163Z,101160.34
2023-02-23T00:09:29.775Z,101123.81
2023-02-23T00:11:57.913Z,101125.81
2023-02-23T00:14:35.866Z,101142.94
2023-02-23T00:17:10.002Z,101163.59
2023-02-23T00:19:40.212Z,101148.63
2023-02-23T00:22:13.753Z,101165.47
2023-02-23T00:24:49.924Z,101134.16
2023-02-23T00:27:21.585Z,101123.38
2023-02-23T00:36:17.920Z,101137.13
2023-02-23T00:38:53.008Z,101134.53
2023-02-23T00:41:29.859Z,101128.88
2023-02-23T00:44:02.164Z,101156.16
2023-02-23T00:46:37.828Z,101128.03
2023-02-23T00:49:11.928Z,101130.69
2023-02-23T00:51:46.926Z,101154.47
2023-02-23T00:54:18.246Z,101132.41
2023-02-23T00:56:52.913Z,101117.94
2023-02-23T00:59:20.851Z,101163.25
2023-02-23T01:01:54.840Z,101159.75
2023-02-23T01:08:03.936Z,101125.78
2023-02-23T01:10:31.112Z,101143.78
2023-02-23T01:13:06.959Z,101155.78
2023-02-23T01:15:34.085Z,101126.72
2023-02-23T01:18:09.848Z,101134.28
2023-02-23T01:20:37.681Z,101129.56
2023-02-23T01:23:12.964Z,101159.19
2023-02-23T01:25:49.917Z,101123.31
2023-02-23T01:28:17.200Z,101154.84
2023-02-23T01:30:52.051Z,101126.06
2023-02-23T01:33:19.072Z,101135.44
2023-02-23T01:38:39.900Z,101137.97
2023-02-23T01:41:09.967Z,101138.94
2023-02-23T01:44:04.484Z,101161.19
2023-02-23T01:46:39.977Z,101126.38
2023-02-23T01:49:17.172Z,101128.81
2023-02-23T01:51:50.003Z,101124.47
2023-02-23T01:57:09.283Z,101129.88
2023-02-23T01:59:47.885Z,101138.19
2023-02-23T02:02:24.966Z,101130.59
2023-02-23T02:05:03.294Z,101163.19
2023-02-23T02:07:37.829Z,101132.69
2023-02-23T02:10:15.730Z,101141.69
2023-02-23T02:13:16.955Z,101119.63
2023-02-23T02:15:54.764Z,101150.69
2023-02-23T02:19:02.849Z,101160.81
2023-02-23T02:21:44.208Z,101158.28
2023-02-23T02:24:54.352Z,101127.69
2023-02-23T02:31:19.083Z,101146.53
2023-02-23T02:34:23.323Z,101154.31
2023-02-23T02:37:08.427Z,101151.66
2023-02-23T02:40:21.961Z,101146.34
2023-02-23T02:43:12.049Z,101143.03
2023-02-23T02:46:29.988Z,101152.59
2023-02-23T02:49:03.257Z,101145.59
2023-02-23T02:51:55.890Z,101150.03
2023-02-23T02:54:49.111Z,101119.25
2023-02-23T02:57:23.888Z,101121.75
2023-02-23T03:00:10.514Z,101138.75
2023-02-23T03:03:04.914Z,101109.06
2023-02-23T03:06:33.124Z,101137.25
2023-02-23T03:09:49.873Z,101143.50
2023-02-23T03:13:05.087Z,101147.97
2023-02-23T03:16:09.293Z,101148.06
2023-02-23T03:19:01.001Z,101147.19
2023-02-23T03:25:45.072Z,101120.69
2023-02-23T03:28:45.021Z,101137.75
2023-02-23T03:35:22.955Z,101134.44
2023-02-23T03:38:31.983Z,101116.63
2023-02-23T03:41:26.191Z,101131.84
2023-02-23T03:44:34.690Z,101133.78
2023-02-23T03:50:32.922Z,101137.25
2023-02-23T03:53:26.931Z,101122.69
2023-02-23T04:02:55.608Z,101155.91
2023-02-23T04:15:49.890Z,101170.13
2023-02-23T04:18:22.321Z,101155.72
2023-02-23T04:20:55.999Z,101141.25
2023-02-23T04:23:24.285Z,101154.13
2023-02-23T04:25:58.997Z,101144.84
2023-02-23T04:28:30.276Z,101163.69
2023-02-23T04:33:45.134Z,101149.19
2023-02-23T04:36:24.734Z,101153.47
2023-02-23T04:38:52.062Z,101154.50
2023-02-23T04:41:26.057Z,101186.16
2023-02-23T04:43:53.264Z,101172.41
2023-02-23T04:53:07.568Z,101189.75
2023-02-23T04:55:38.344Z,101166.16
2023-02-23T04:58:12.003Z,101172.97
2023-02-23T05:00:43.800Z,101192.59
2023-02-23T05:03:18.964Z,101160.25
2023-02-23T05:11:19.241Z,101175.91
2023-02-23T05:13:56.279Z,101194.56
2023-02-23T05:16:23.889Z,101169.66
2023-02-23T05:19:01.183Z,101166.34
2023-02-23T05:21:34.164Z,101176.78
2023-02-23T05:29:30.937Z,101162.56
2023-02-23T05:32:01.133Z,101173.16
2023-02-23T05:34:38.056Z,101181.56
2023-02-23T05:37:12.080Z,101178.94
2023-02-23T05:39:45.859Z,101174.19
2023-02-23T05:42:18.884Z,101185.19
2023-02-23T05:44:54.955Z,101183.66
2023-02-23T05:47:31.118Z,101175.34
2023-02-23T05:49:58.114Z,101172.03
2023-02-23T05:59:01.939Z,101180.72
2023-02-23T06:01:34.954Z,101161.88
2023-02-23T06:04:07.988Z,101190.28
2023-02-23T06:06:36.111Z,101181.28
2023-02-23T06:09:31.956Z,101218.78
2023-02-23T06:12:06.917Z,101221.53
2023-02-23T06:14:42.115Z,101202.97
2023-02-23T06:17:09.347Z,101200.66
2023-02-23T06:19:42.934Z,101195.38
2023-02-23T06:22:10.328Z,101199.91
2023-02-23T06:24:46.888Z,101227.03
2023-02-23T06:27:16.325Z,101215.25
2023-02-23T06:33:25.922Z,101229.94
2023-02-23T06:41:31.252Z,101196.00
2023-02-23T06:44:00.689Z,101213.09
2023-02-23T06:46:34.073Z,101207.56
2023-02-23T06:49:01.083Z,101208.44
2023-02-23T06:51:34.981Z,101250.59
2023-02-23T06:54:04.159Z,101225.72
2023-02-23T06:56:38.089Z,101232.66
2023-02-23T06:59:05.174Z,101228.56
2023-02-23T07:07:34.604Z,101262.97
2023-02-23T07:10:43.413Z,101265.63
2023-02-23T07:16:07.340Z,101242.94
2023-02-23T07:18:41.019Z,101276.31
2023-02-23T07:21:10.366Z,101255.16
2023-02-23T07:23:46.972Z,101250.16
2023-02-23T07:26:17.331Z,101256.28
2023-02-23T07:28:46.602Z,101288.22
2023-02-23T07:34:19.097Z,101288.50
2023-02-23T07:39:33.988Z,101300.47
2023-02-23T07:42:07.639Z,101286.09
2023-02-23T07:44:34.930Z,101288.84
2023-02-23T07:47:04.643Z,101303.25
2023-02-23T07:49:41.966Z,101287.06
2023-02-23T07:59:23.981Z,101319.94
2023-02-23T08:01:52.011Z,101299.44
2023-02-23T08:04:29.055Z,101297.91
2023-02-23T08:06:57.990Z,101302.88
2023-02-23T08:09:31.071Z,101306.53
2023-02-23T08:12:43.021Z,101315.00
2023-02-23T08:15:10.648Z,101324.03
2023-02-23T08:17:48.006Z,101307.41
2023-02-23T08:20:15.407Z,101314.06
2023-02-23T08:22:49.393Z,101329.25
2023-02-23T08:25:27.076Z,101320.88
2023-02-23T08:27:54.754Z,101308.94
2023-02-23T08:30:35.060Z,101320.03
2023-02-23T08:33:02.303Z,101344.13
2023-02-23T08:35:42.206Z,101316.50
2023-02-23T08:38:09.542Z,101311.41
2023-02-23T08:40:46.019Z,101310.28
2023-02-23T08:43:13.210Z,101325.84
2023-02-23T08:48:41.168Z,101322.53
2023-02-23T08:51:17.205Z,101319.09
2023-02-23T08:53:49.815Z,101351.44
2023-02-23T08:56:33.142Z,101341.28
2023-02-23T09:01:58.029Z,101348.03
2023-02-23T09:04:31.176Z,101333.34
2023-02-23T09:07:28.712Z,101342.72
2023-02-23T09:10:58.215Z,101359.75
2023-02-23T09:13:32.132Z,101352.22
2023-02-23T09:15:59.458Z,101351.34
2023-02-23T09:19:08.219Z,101372.03
2023-02-23T09:21:35.753Z,101365.28
2023-02-23T09:24:10.173Z,101345.38
2023-02-23T09:26:40.304Z,101377.25
2023-02-23T09:29:17.636Z,101357.63
2023-02-23T09:31:47.534Z,101351.44
2023-02-23T09:34:21.115Z,101361.53
2023-02-23T09:36:55.396Z,101388.09
2023-02-23T09:39:37.658Z,101365.53
2023-02-23T09:42:36.917Z,101361.19
2023-02-23T09:48:22.602Z,101359.94
2023-02-23T09:54:38.358Z,101359.13
2023-02-23T09:57:18.052Z,101385.59
2023-02-23T09:59:47.870Z,101393.22
2023-02-23T10:02:56.180Z,101384.97
2023-02-23T10:05:26.257Z,101386.41
2023-02-23T10:11:33.441Z,101380.22
2023-02-23T10:14:13.492Z,101357.94
2023-02-23T10:17:03.151Z,101360.31
2023-02-23T10:20:12.169Z,101386.78
2023-02-23T10:22:51.172Z,101358.72
2023-02-23T10:25:32.219Z,101388.84
2023-02-23T10:28:01.592Z,101365.81
2023-02-23T10:30:41.274Z,101384.13
2023-02-23T10:33:24.178Z,101387.63
2023-02-23T10:36:13.306Z,101387.81
2023-02-23T10:38:41.425Z,101373.47
2023-02-23T10:41:18.417Z,101379.84
2023-02-23T10:43:54.109Z,101389.41
2023-02-23T10:46:32.553Z,101369.69
2023-02-23T10:49:01.121Z,101397.88
2023-02-23T10:51:46.704Z,101370.53
2023-02-23T10:54:43.123Z,101397.22
2023-02-23T10:57:21.110Z,101406.19
2023-02-23T11:00:20.483Z,101409.03
2023-02-23T11:02:57.190Z,101400.09
2023-02-23T11:05:35.728Z,101408.03
2023-02-23T11:08:18.466Z,101397.06
2023-02-23T11:11:19.492Z,101391.75
2023-02-23T11:13:55.271Z,101403.78
2023-02-23T11:16:25.593Z,101397.34
2023-02-23T11:19:09.699Z,101407.84
2023-02-23T11:21:47.185Z,101398.97
2023-02-23T11:24:42.378Z,101417.09
2023-02-23T11:27:31.203Z,101407.50
2023-02-23T11:30:03.187Z,101383.16
2023-02-23T11:32:40.117Z,101393.94
2023-02-23T11:35:32.161Z,101408.28
2023-02-23T11:37:59.417Z,101381.72
2023-02-23T11:40:45.089Z,101391.13
2023-02-23T11:43:19.413Z,101393.78
2023-02-23T11:45:57.094Z,101392.81
2023-02-23T11:48:37.902Z,101415.91
2023-02-23T11:51:12.243Z,101392.72
2023-02-23T11:53:46.972Z,101402.03
2023-02-23T11:56:27.134Z,101390.06
2023-02-23T11:58:56.169Z,101392.81
2023-02-23T12:01:52.192Z,101408.41
2023-02-23T12:04:46.188Z,101403.19
2023-02-23T12:07:31.198Z,101408.09
2023-02-23T12:10:34.221Z,101416.84
2023-02-23T12:13:29.176Z,101392.38
2023-02-23T12:16:05.917Z,101399.78
2023-02-23T12:19:13.467Z,101405.31
2023-02-23T12:21:56.222Z,101388.50
2023-02-23T12:24:41.503Z,101395.50
2023-02-23T12:27:29.223Z,101401.03
2023-02-23T12:29:56.167Z,101400.84
2023-02-23T12:32:36.328Z,101402.09
2023-02-23T12:35:34.464Z,101384.53
2023-02-23T12:38:16.152Z,101411.19
2023-02-23T12:40:44.613Z,101391.16
2023-02-23T12:43:34.199Z,101382.13
2023-02-23T12:56:25.320Z,101416.94
2023-02-23T12:59:26.373Z,101419.78
2023-02-23T13:02:14.413Z,101411.31
2023-02-23T13:05:10.227Z,101421.91
2023-02-23T13:11:11.250Z,101396.97
2023-02-23T13:14:12.220Z,101413.78
2023-02-23T13:16:52.190Z,101418.13
2023-02-23T13:19:42.768Z,101412.59
2023-02-23T13:22:48.018Z,101419.22
2023-02-23T13:25:41.865Z,101429.03
2023-02-23T13:28:26.915Z,101421.13
2023-02-23T13:33:44.507Z,101399.84
2023-02-23T13:39:40.224Z,101425.59
2023-02-23T13:42:42.169Z,101394.75
2023-02-23T13:45:44.168Z,101425.69
2023-02-23T13:48:56.655Z,101397.41
2023-02-23T13:51:33.394Z,101419.63
2023-02-23T13:54:16.657Z,101420.53
2023-02-23T13:56:48.504Z,101406.13
2023-02-23T13:59:33.348Z,101415.53
2023-02-23T14:02:10.757Z,101406.78
2023-02-23T14:04:49.309Z,101425.50
2023-02-23T14:07:32.400Z,101414.47
2023-02-23T14:10:13.279Z,101418.41
2023-02-23T14:17:22.160Z,101432.63
2023-02-23T14:20:27.948Z,101434.06
2023-02-23T14:23:26.791Z,101404.94
2023-02-23T14:26:22.562Z,101425.84
2023-02-23T14:29:22.733Z,101406.88
2023-02-23T14:32:18.732Z,101430.88
2023-02-23T14:34:58.188Z,101435.81
2023-02-23T14:37:46.275Z,101411.63
2023-02-23T14:40:22.899Z,101407.84
2023-02-23T14:42:59.199Z,101410.78
2023-02-23T14:45:29.654Z,101409.56
2023-02-23T14:48:08.205Z,101408.63
2023-02-23T14:50:39.498Z,101396.66
2023-02-23T14:56:43.176Z,101404.44
2023-02-23T15:02:45.889Z,101402.91
2023-02-23T15:05:23.559Z,101388.59
2023-02-23T15:10:46.453Z,101391.91
2023-02-23T15:16:06.938Z,101400.16
2023-02-23T15:18:47.459Z,101412.41
2023-02-23T15:21:20.288Z,101385.84
2023-02-23T15:23:59.258Z,101380.78
2023-02-23T15:26:38.210Z,101384.88
2023-02-23T15:31:59.336Z,101387.06
2023-02-23T15:34:38.346Z,101396.47
2023-02-23T15:37:12.258Z,101384.41
2023-02-23T15:40:03.580Z,101421.22
2023-02-23T15:49:31.302Z,101427.28
2023-02-23T15:52:20.190Z,101409.44
2023-02-23T15:55:08.901Z,101433.66
2023-02-23T15:57:59.281Z,101405.53
2023-02-23T16:00:49.273Z,101400.44
2023-02-23T16:03:38.860Z,101405.75
2023-02-23T16:06:28.867Z,101412.75
2023-02-23T16:08:57.778Z,101391.50
2023-02-23T16:11:57.435Z,101386.19
2023-02-23T16:15:03.340Z,101419.78
2023-02-23T16:17:54.270Z,101390.81
2023-02-23T16:21:02.465Z,101396.88
2023-02-23T16:23:44.971Z,101400.66
2023-02-23T16:26:50.430Z,101393.00
2023-02-23T16:29:26.700Z,101404.63
2023-02-23T16:32:13.609Z,101394.59
2023-02-23T16:34:55.408Z,101406.16
2023-02-23T16:37:32.294Z,101394.19
2023-02-23T16:40:08.308Z,101409.00
2023-02-23T16:42:44.501Z,101398.84
2023-02-23T16:45:24.248Z,101400.72
2023-02-23T16:47:52.029Z,101411.06
2023-02-23T16:50:32.365Z,101406.22
2023-02-23T16:53:00.758Z,101439.78
2023-02-23T16:55:36.394Z,101425.13
2023-02-23T16:58:11.337Z,101423.03
2023-02-23T17:00:38.601Z,101446.03
2023-02-23T17:03:15.233Z,101444.78
2023-02-23T17:06:11.338Z,101433.81
2023-02-23T17:08:57.185Z,101457.44
2023-02-23T17:11:31.280Z,101451.16
2023-02-23T17:14:08.356Z,101462.00
2023-02-23T17:16:55.209Z,101481.47
2023-02-23T17:19:24.459Z,101470.88
2023-02-23T17:21:59.385Z,101493.44
2023-02-23T17:24:29.254Z,101464.94
2023-02-23T17:29:44.397Z,101480.66
2023-02-23T17:32:40.438Z,101496.63
2023-02-23T17:35:07.868Z,101468.47
2023-02-23T17:37:44.333Z,101505.88
2023-02-23T17:40:20.496Z,101482.72
2023-02-23T17:42:57.534Z,101491.56
2023-02-23T17:45:24.841Z,101486.81
2023-02-23T17:48:05.442Z,101511.06
2023-02-23T17:50:32.594Z,101483.47
2023-02-23T17:53:06.374Z,101498.09
2023-02-23T17:55:34.581Z,101485.44
2023-02-23T17:58:01.805Z,101497.47
2023-02-23T18:03:23.372Z,101525.91
2023-02-23T18:05:57.315Z,101512.91
2023-02-23T18:08:24.596Z,101522.28
2023-02-23T18:10:59.381Z,101521.31
2023-02-23T18:13:36.163Z,101522.56
2023-02-23T18:18:55.292Z,101509.41
2023-02-23T18:21:29.778Z,101519.94
2023-02-23T18:23:58.556Z,101518.84
2023-02-23T18:26:36.649Z,101518.84
2023-02-23T18:29:12.864Z,101518.25
2023-02-23T18:31:47.533Z,101526.72
2023-02-23T18:34:17.929Z,101537.78
2023-02-23T18:36:51.363Z,101520.75
2023-02-23T18:39:18.648Z,101524.75
2023-02-23T18:41:52.323Z,101537.81
2023-02-23T18:44:23.008Z,101538.16
2023-02-23T18:46:50.607Z,101544.78
2023-02-23T18:49:26.395Z,101523.22
2023-02-23T18:51:53.518Z,101534.97
2023-02-23T18:54:32.344Z,101530.31
2023-02-23T18:56:59.483Z,101537.28
2023-02-23T19:00:31.281Z,101563.22
2023-02-23T19:05:59.369Z,101550.94
2023-02-23T19:08:33.374Z,101549.66
2023-02-23T19:11:07.437Z,101542.94
2023-02-23T19:13:41.581Z,101545.09
2023-02-23T19:16:15.480Z,101540.31
2023-02-23T19:18:42.990Z,101559.00
2023-02-23T19:21:16.374Z,101547.38
2023-02-23T19:23:46.999Z,101540.81
2023-02-23T19:26:22.462Z,101527.88
2023-02-23T19:28:51.830Z,101537.13
2023-02-23T19:31:28.579Z,101529.72
2023-02-23T19:33:57.956Z,101521.13
2023-02-23T19:37:09.393Z,101535.44
2023-02-23T19:39:37.155Z,101511.25
2023-02-23T19:42:04.343Z,101514.16
2023-02-23T19:44:38.402Z,101522.44
2023-02-23T19:47:12.358Z,101507.94
2023-02-23T19:49:39.516Z,101510.28
2023-02-23T19:52:13.750Z,101513.19
2023-02-23T19:54:41.095Z,101513.59
2023-02-23T19:57:17.395Z,101514.75
2023-02-23T19:59:44.609Z,101520.34
2023-02-23T20:02:18.412Z,101523.94
2023-02-23T20:05:01.419Z,101517.00
2023-02-23T20:07:28.527Z,101547.16
2023-02-23T20:10:03.449Z,101529.53
2023-02-23T20:12:50.499Z,101518.44
2023-02-23T20:15:26.360Z,101522.25
2023-02-23T20:17:58.717Z,101516.91
2023-02-23T20:20:32.395Z,101524.94
2023-02-23T20:23:07.970Z,101541.56
2023-02-23T20:28:29.420Z,101540.53
2023-02-23T20:31:03.442Z,101519.41
2023-02-23T20:33:38.357Z,101517.44
2023-02-23T20:36:05.736Z,101523.19
2023-02-23T20:38:41.476Z,101546.94
2023-02-23T20:41:08.967Z,101524.13
2023-02-23T20:43:43.468Z,101519.16
2023-02-23T20:46:16.558Z,101518.63
2023-02-23T20:48:55.324Z,101521.09
2023-02-23T20:51:29.433Z,101520.75
2023-02-23T20:54:03.432Z,101529.31
2023-02-23T20:56:33.093Z,101520.31
2023-02-23T20:59:11.763Z,101541.19
2023-02-23T21:01:43.307Z,101518.91
2023-02-23T21:04:19.717Z,101508.84
2023-02-23T21:06:49.991Z,101501.72
2023-02-23T21:09:26.524Z,101502.22
2023-02-23T21:12:00.452Z,101502.66
2023-02-23T21:14:36.474Z,101518.63
2023-02-23T21:17:04.950Z,101508.72
2023-02-23T21:19:43.397Z,101513.97
2023-02-23T21:25:32.208Z,101487.41
2023-02-23T21:28:04.411Z,101494.00
2023-02-23T21:30:40.502Z,101488.72
2023-02-23T21:33:19.503Z,101494.38
2023-02-23T21:36:05.504Z,101475.91
2023-02-23T21:38:41.478Z,101492.13
2023-02-23T21:43:53.675Z,101487.13
2023-02-23T21:46:29.697Z,101462.31
2023-02-23T21:49:05.440Z,101476.06
2023-02-23T21:51:46.431Z,101465.34
2023-02-23T21:54:13.784Z,101463.84
2023-02-23T21:56:49.122Z,101470.22
2023-02-23T21:59:25.126Z,101489.50
2023-02-23T22:01:58.455Z,101468.59
2023-02-23T22:04:25.547Z,101467.41
2023-02-23T22:06:59.403Z,101477.22
2023-02-23T22:09:26.905Z,101475.78
2023-02-23T22:12:01.425Z,101485.41
2023-02-23T22:18:58.435Z,101489.53
2023-02-23T22:21:39.541Z,101471.63
2023-02-23T22:24:07.918Z,101457.59
2023-02-23T22:26:44.389Z,101460.19
2023-02-23T22:29:11.765Z,101454.31
2023-02-23T22:31:39.253Z,101461.63
2023-02-23T22:34:13.422Z,101458.25
2023-02-23T22:36:46.636Z,101467.00
2023-02-23T22:41:59.542Z,101463.25
2023-02-23T22:47:14.430Z,101467.81
2023-02-23T22:49:48.428Z,101451.38
2023-02-23T22:55:06.282Z,101443.97
2023-02-23T22:57:54.437Z,101444.91
2023-02-23T23:00:28.430Z,101437.06
2023-02-23T23:02:55.940Z,101438.50
2023-02-23T23:08:20.409Z,101446.47
2023-02-23T23:17:07.551Z,101448.13
2023-02-23T23:19:39.298Z,101416.84
2023-02-23T23:25:21.248Z,101411.09
2023-02-23T23:27:57.411Z,101410.56
2023-02-23T23:30:47.546Z,101425.44
2023-02-23T23:36:09.677Z,101422.38
2023-02-23T23:38:38.750Z,101428.44
2023-02-23T23:41:23.162Z,101413.97
2023-02-23T23:43:54.856Z,101407.41
2023-02-23T23:55:46.653Z,101405.31
2023-02-23T23:58:21.461Z,101387.19
